Time;durP1;ratioP1;P1;durP2;ratioP2;P2;SDS_P1;SDS_P2;PMS_P1;PMS_P2;Temp;Humidity;BMP_temperature;BMP_pressure;BME280_temperature;BME280_humidity;BME280_pressure;Samples;Min_cycle;Max_cycle;Signal;HPM_P1;HPM_P2
2023/05/02 00:00:30;;;;;;;;;;;11.30;99.90;;;;;;5054888;28;19964;-65
2023/05/02 00:02:55;;;;;;;;;;;11.30;99.90;;;;;;5055918;28;19920;-65
2023/05/02 00:05:21;;;;;;;;;;;11.30;99.90;;;;;;5053594;28;19921;-66
2023/05/02 00:07:47;;;;;;;;;;;11.30;99.90;;;;;;5054099;28;19924;-65
2023/05/02 00:10:12;;;;;;;;;;;11.30;99.90;;;;;;5052666;28;19920;-65
2023/05/02 00:12:38;;;;;;;;;;;11.40;99.90;;;;;;5059833;28;19943;-65
2023/05/02 00:15:04;;;;;;;;;;;11.40;99.90;;;;;;5054860;28;19967;-65
2023/05/02 00:17:29;;;;;;;;;;;11.40;99.90;;;;;;5054408;28;19921;-65
2023/05/02 00:19:55;;;;;;;;;;;11.40;99.90;;;;;;5057865;28;20445;-65
2023/05/02 00:22:20;;;;;;;;;;;11.40;99.90;;;;;;5035768;28;19925;-65
2023/05/02 00:24:46;;;;;;;;;;;11.40;99.90;;;;;;5054120;28;19921;-65
2023/05/02 00:27:13;;;;;;;;;;;11.40;99.90;;;;;;5054849;28;20347;-65
2023/05/02 00:29:38;;;;;;;;;;;11.40;99.90;;;;;;5063342;28;20401;-65
2023/05/02 00:32:04;;;;;;;;;;;11.40;99.90;;;;;;5054240;28;19924;-66
2023/05/02 00:34:30;;;;;;;;;;;11.40;99.90;;;;;;5053968;28;20395;-65
2023/05/02 00:36:56;;;;;;;;;;;11.40;99.90;;;;;;5050906;28;19925;-64
2023/05/02 00:39:21;;;;;;;;;;;11.40;99.90;;;;;;5061263;28;19931;-65
2023/05/02 00:41:47;;;;;;;;;;;11.30;99.90;;;;;;5053530;28;19928;-65
2023/05/02 00:44:12;;;;;;;;;;;11.30;99.90;;;;;;5051412;28;19927;-66
2023/05/02 00:46:38;;;;;;;;;;;11.30;99.90;;;;;;5035760;28;20015;-64
2023/05/02 00:49:03;;;;;;;;;;;11.20;99.90;;;;;;5052988;28;19967;-65
2023/05/02 00:51:29;;;;;;;;;;;11.10;99.90;;;;;;5052210;28;19925;-65
2023/05/02 00:53:56;;;;;;;;;;;11.10;99.90;;;;;;5063812;28;19962;-65
2023/05/02 00:56:22;;;;;;;;;;;11.00;99.90;;;;;;5053570;28;20394;-64
2023/05/02 00:58:47;;;;;;;;;;;10.90;99.90;;;;;;5053247;28;19979;-65
2023/05/02 01:01:19;;;;;;;;;;;10.90;99.90;;;;;;5047735;28;19921;-66
2023/05/02 01:03:53;;;;;;;;;;;10.80;99.90;;;;;;5052522;28;19921;-66
2023/05/02 01:06:34;;;;;;;;;;;10.80;99.90;;;;;;5053594;28;20399;-65
2023/05/02 01:09:04;;;;;;;;;;;10.70;99.90;;;;;;5053059;28;19921;-65
2023/05/02 01:11:52;;;;;;;;;;;10.70;99.90;;;;;;5050612;28;20012;-66
2023/05/02 01:14:19;;;;;;;;;;;10.70;99.90;;;;;;5014854;28;19920;-65
2023/05/02 01:16:45;;;;;;;;;;;10.60;99.90;;;;;;5052688;28;20345;-65
2023/05/02 01:19:18;;;;;;;;;;;10.50;99.90;;;;;;5053099;28;19978;-65
2023/05/02 01:21:44;;;;;;;;;;;10.50;99.90;;;;;;5053094;28;19927;-65
2023/05/02 01:24:23;;;;;;;;;;;10.50;99.90;;;;;;5060390;28;20011;-65
2023/05/02 01:26:51;;;;;;;;;;;10.40;99.90;;;;;;5052204;28;20370;-64
2023/05/02 01:29:17;;;;;;;;;;;10.40;99.90;;;;;;5052694;28;20358;-65
2023/05/02 01:31:44;;;;;;;;;;;10.40;99.90;;;;;;5056004;28;19929;-65
2023/05/02 01:34:10;;;;;;;;;;;10.40;99.90;;;;;;5034401;28;19921;-65
2023/05/02 01:36:37;;;;;;;;;;;10.40;99.90;;;;;;5052756;28;19924;-65
2023/05/02 01:39:06;;;;;;;;;;;10.40;99.90;;;;;;5050957;28;19971;-65
2023/05/02 01:41:33;;;;;;;;;;;10.30;99.90;;;;;;5056498;28;19925;-65
2023/05/02 01:44:00;;;;;;;;;;;10.30;99.90;;;;;;5053860;28;19921;-65
2023/05/02 01:46:27;;;;;;;;;;;10.30;99.90;;;;;;5072955;28;19924;-65
2023/05/02 01:48:54;;;;;;;;;;;10.30;99.90;;;;;;5061606;28;19925;-65
2023/05/02 01:51:20;;;;;;;;;;;10.30;99.90;;;;;;5051974;28;19928;-65
2023/05/02 01:53:48;;;;;;;;;;;10.30;99.90;;;;;;5067916;28;20379;-65
2023/05/02 01:56:16;;;;;;;;;;;10.20;99.90;;;;;;5062452;28;20287;-65
2023/05/02 01:58:42;;;;;;;;;;;10.20;99.90;;;;;;5051347;28;20415;-65
2023/05/02 02:01:08;;;;;;;;;;;10.20;99.90;;;;;;5052191;28;19967;-65
2023/05/02 02:03:33;;;;;;;;;;;10.20;99.90;;;;;;5052479;28;19964;-65
2023/05/02 02:05:59;;;;;;;;;;;10.20;99.90;;;;;;5050680;28;19921;-65
2023/05/02 02:08:25;;;;;;;;;;;10.20;99.90;;;;;;5033600;28;19928;-65
2023/05/02 02:10:56;;;;;;;;;;;10.20;99.90;;;;;;5052199;28;19925;-65
2023/05/02 02:13:25;;;;;;;;;;;10.10;99.90;;;;;;5053788;28;20011;-65
2023/05/02 02:15:52;;;;;;;;;;;10.10;99.90;;;;;;5051494;28;19995;-65
2023/05/02 02:18:20;;;;;;;;;;;10.10;99.90;;;;;;5051765;28;19924;-64
2023/05/02 02:20:46;;;;;;;;;;;10.10;99.90;;;;;;5052127;28;19943;-65
2023/05/02 02:23:12;;;;;;;;;;;10.00;99.90;;;;;;5049437;28;20379;-65
2023/05/02 02:25:37;;;;;;;;;;;9.90;99.90;;;;;;5051792;28;19924;-65
2023/05/02 02:28:03;;;;;;;;;;;9.80;99.90;;;;;;5050815;28;19928;-64
2023/05/02 02:30:28;;;;;;;;;;;9.90;99.90;;;;;;5055427;28;19921;-65
2023/05/02 02:32:54;;;;;;;;;;;9.90;99.90;;;;;;5051031;28;20300;-65
2023/05/02 02:35:20;;;;;;;;;;;9.90;99.90;;;;;;5033978;28;19928;-65
2023/05/02 02:38:03;;;;;;;;;;;9.90;99.90;;;;;;5051782;28;19955;-65
2023/05/02 02:40:32;;;;;;;;;;;9.90;99.90;;;;;;5051609;28;19921;-64
2023/05/02 02:43:02;;;;;;;;;;;9.90;99.90;;;;;;5051797;28;20454;-65
2023/05/02 02:45:46;;;;;;;;;;;9.90;99.90;;;;;;5047740;28;19921;-65
2023/05/02 02:48:11;;;;;;;;;;;9.90;99.90;;;;;;5052917;28;20286;-64
2023/05/02 02:50:41;;;;;;;;;;;9.90;99.90;;;;;;5051508;28;19921;-65
2023/05/02 02:53:08;;;;;;;;;;;9.90;99.90;;;;;;5044140;22;20306;-65
2023/05/02 02:55:45;;;;;;;;;;;9.90;99.90;;;;;;5021493;28;19948;-65
2023/05/02 02:58:29;;;;;;;;;;;9.90;99.90;;;;;;5017415;28;20337;-65
2023/05/02 03:00:55;;;;;;;;;;;9.90;99.90;;;;;;5028989;28;19925;-65
2023/05/02 03:03:22;;;;;;;;;;;9.90;99.90;;;;;;5022175;28;19975;-64
2023/05/02 03:05:47;;;;;;;;;;;9.90;99.90;;;;;;5012138;28;19929;-66
2023/05/02 03:08:13;;;;;;;;;;;9.80;99.90;;;;;;5015521;28;20021;-65
2023/05/02 03:10:38;;;;;;;;;;;9.80;99.90;;;;;;5023149;28;20007;-65
2023/05/02 03:13:04;;;;;;;;;;;9.80;99.90;;;;;;5031510;28;19922;-64
2023/05/02 03:15:48;;;;;;;;;;;9.70;99.90;;;;;;5018527;28;19922;-66
2023/05/02 03:18:14;;;;;;;;;;;9.60;99.90;;;;;;5025169;28;19948;-64
2023/05/02 03:20:40;;;;;;;;;;;9.30;99.90;;;;;;5012893;28;19948;-65
2023/05/02 03:23:06;;;;;;;;;;;9.20;99.90;;;;;;5027938;28;19967;-65
2023/05/02 03:25:31;;;;;;;;;;;9.10;99.90;;;;;;5018353;28;19968;-65
2023/05/02 03:27:57;;;;;;;;;;;9.00;99.90;;;;;;5028567;28;20314;-64
2023/05/02 03:30:22;;;;;;;;;;;8.90;99.90;;;;;;5024068;28;19921;-65
2023/05/02 03:32:48;;;;;;;;;;;8.90;99.90;;;;;;5025891;28;19921;-65
2023/05/02 03:35:14;;;;;;;;;;;8.90;99.90;;;;;;5022758;28;20384;-64
2023/05/02 03:37:39;;;;;;;;;;;8.80;99.90;;;;;;4997652;28;20343;-65
2023/05/02 03:40:05;;;;;;;;;;;8.70;99.90;;;;;;5022268;28;20176;-65
2023/05/02 03:42:33;;;;;;;;;;;8.70;99.90;;;;;;5035258;28;19925;-65
2023/05/02 03:44:58;;;;;;;;;;;8.70;99.90;;;;;;5027894;28;19932;-65
2023/05/02 03:47:23;;;;;;;;;;;8.70;99.90;;;;;;5029227;28;19921;-64
2023/05/02 03:49:51;;;;;;;;;;;8.70;99.90;;;;;;5011759;28;20409;-64
2023/05/02 03:52:16;;;;;;;;;;;8.70;99.90;;;;;;5011829;28;19922;-64
2023/05/02 03:54:42;;;;;;;;;;;8.70;99.90;;;;;;5022152;28;19929;-65
2023/05/02 03:57:08;;;;;;;;;;;8.60;99.90;;;;;;5022484;28;20440;-64
2023/05/02 03:59:34;;;;;;;;;;;8.60;99.90;;;;;;5014856;28;19922;-65
2023/05/02 04:01:59;;;;;;;;;;;8.50;99.90;;;;;;5021608;28;19925;-64
2023/05/02 04:04:25;;;;;;;;;;;8.40;99.90;;;;;;5025749;28;20299;-64
2023/05/02 04:06:50;;;;;;;;;;;8.30;99.90;;;;;;5017559;28;19944;-65
2023/05/02 04:09:16;;;;;;;;;;;8.30;99.90;;;;;;5015132;28;20200;-65
2023/05/02 04:11:41;;;;;;;;;;;8.30;99.90;;;;;;5026889;28;19921;-65
2023/05/02 04:14:07;;;;;;;;;;;8.30;99.90;;;;;;5025095;28;20008;-65
2023/05/02 04:16:32;;;;;;;;;;;8.20;99.90;;;;;;5034357;28;19974;-64
2023/05/02 04:18:58;;;;;;;;;;;8.30;99.90;;;;;;5027763;28;19926;-65
2023/05/02 04:21:23;;;;;;;;;;;8.20;99.90;;;;;;5021945;28;19925;-64
2023/05/02 04:23:49;;;;;;;;;;;8.20;99.90;;;;;;5018926;28;19921;-64
2023/05/02 04:26:15;;;;;;;;;;;8.20;99.90;;;;;;5025645;28;20020;-65
2023/05/02 04:28:40;;;;;;;;;;;8.20;99.90;;;;;;5012340;28;20015;-65
2023/05/02 04:31:06;;;;;;;;;;;8.10;99.90;;;;;;5023001;28;20016;-65
2023/05/02 04:33:31;;;;;;;;;;;8.10;99.90;;;;;;5014230;28;19921;-65
2023/05/02 04:35:57;;;;;;;;;;;8.10;99.90;;;;;;5014707;28;20144;-64
2023/05/02 04:38:22;;;;;;;;;;;8.10;99.90;;;;;;5027570;28;20372;-65
2023/05/02 04:40:51;;;;;;;;;;;8.10;99.90;;;;;;4996605;28;19925;-65
2023/05/02 04:43:16;;;;;;;;;;;8.10;99.90;;;;;;5023444;28;19928;-64
2023/05/02 04:45:42;;;;;;;;;;;8.00;99.90;;;;;;5024417;28;19921;-65
2023/05/02 04:48:07;;;;;;;;;;;8.00;99.90;;;;;;5033539;28;19932;-65
2023/05/02 04:50:33;;;;;;;;;;;8.00;99.90;;;;;;5028082;28;19925;-64
2023/05/02 04:52:58;;;;;;;;;;;8.00;99.90;;;;;;5020559;28;20386;-64
2023/05/02 04:55:24;;;;;;;;;;;8.00;99.90;;;;;;5022171;28;19921;-65
2023/05/02 04:57:50;;;;;;;;;;;8.00;99.90;;;;;;5009328;28;19929;-64
2023/05/02 05:00:16;;;;;;;;;;;8.00;99.90;;;;;;5018685;28;19920;-65
2023/05/02 05:02:42;;;;;;;;;;;8.00;99.90;;;;;;5018263;28;20020;-65
2023/05/02 05:05:07;;;;;;;;;;;8.00;99.90;;;;;;5016810;28;19960;-65
2023/05/02 05:07:33;;;;;;;;;;;8.00;99.90;;;;;;5016920;28;19947;-65
2023/05/02 05:09:58;;;;;;;;;;;8.00;99.90;;;;;;5023415;28;19921;-65
2023/05/02 05:12:24;;;;;;;;;;;8.00;99.90;;;;;;5014977;28;19937;-65
2023/05/02 05:14:49;;;;;;;;;;;8.00;99.90;;;;;;5000290;28;19975;-65
2023/05/02 05:17:15;;;;;;;;;;;8.00;99.90;;;;;;5015651;28;19927;-66
2023/05/02 05:19:40;;;;;;;;;;;8.10;99.90;;;;;;5019453;28;19925;-65
2023/05/02 05:22:07;;;;;;;;;;;8.10;99.90;;;;;;5031597;28;20036;-65
2023/05/02 05:24:32;;;;;;;;;;;8.10;99.90;;;;;;5023688;28;19921;-65
2023/05/02 05:26:58;;;;;;;;;;;8.10;99.90;;;;;;5023807;28;20346;-66
2023/05/02 05:29:23;;;;;;;;;;;8.10;99.90;;;;;;5024486;28;20390;-65
2023/05/02 05:31:48;;;;;;;;;;;8.10;99.90;;;;;;5023539;28;20028;-64
2023/05/02 05:34:14;;;;;;;;;;;8.10;99.90;;;;;;5018564;28;19943;-65
2023/05/02 05:36:40;;;;;;;;;;;8.10;99.90;;;;;;5006538;28;19925;-66
2023/05/02 05:39:05;;;;;;;;;;;8.10;99.90;;;;;;5028939;28;19925;-66
2023/05/02 05:41:33;;;;;;;;;;;8.10;99.90;;;;;;5026540;28;19929;-65
2023/05/02 05:43:58;;;;;;;;;;;8.10;99.90;;;;;;5021598;28;20143;-66
2023/05/02 05:46:23;;;;;;;;;;;8.20;99.90;;;;;;5023186;28;20058;-67
2023/05/02 05:48:49;;;;;;;;;;;8.10;99.90;;;;;;5011155;28;19921;-67
2023/05/02 05:51:14;;;;;;;;;;;8.20;99.90;;;;;;5025336;28;20064;-66
2023/05/02 05:53:40;;;;;;;;;;;8.20;99.90;;;;;;5023753;28;19926;-66
2023/05/02 05:56:09;;;;;;;;;;;8.20;99.90;;;;;;5019149;28;19925;-66
2023/05/02 05:58:35;;;;;;;;;;;8.30;99.90;;;;;;5002200;28;19957;-65
2023/05/02 06:01:01;;;;;;;;;;;8.30;99.90;;;;;;5022911;28;20034;-65
2023/05/02 06:03:26;;;;;;;;;;;8.40;99.90;;;;;;5028457;28;20390;-66
2023/05/02 06:05:52;;;;;;;;;;;8.40;99.90;;;;;;5017948;28;20521;-66
2023/05/02 06:08:18;;;;;;;;;;;8.50;99.90;;;;;;5003162;28;20677;-67
2023/05/02 06:10:43;;;;;;;;;;;8.50;99.90;;;;;;5020115;28;19925;-67
2023/05/02 06:13:09;;;;;;;;;;;8.60;99.90;;;;;;5019457;28;19928;-66
2023/05/02 06:15:34;;;;;;;;;;;8.70;99.90;;;;;;5016407;28;19932;-66
2023/05/02 06:18:00;;;;;;;;;;;8.70;99.90;;;;;;5018983;28;19925;-68
2023/05/02 06:20:25;;;;;;;;;;;8.70;99.90;;;;;;5019096;28;19929;-67
2023/05/02 06:22:51;;;;;;;;;;;8.70;99.90;;;;;;5022230;28;20596;-67
2023/05/02 06:25:16;;;;;;;;;;;8.70;99.90;;;;;;4998520;28;20020;-66
2023/05/02 06:27:42;;;;;;;;;;;8.60;99.90;;;;;;5003955;28;19925;-66
2023/05/02 06:30:07;;;;;;;;;;;8.50;99.90;;;;;;5025253;28;20373;-67
2023/05/02 06:32:33;;;;;;;;;;;8.50;99.90;;;;;;5002016;28;19925;-68
2023/05/02 06:34:58;;;;;;;;;;;8.50;99.90;;;;;;4999156;28;19922;-65
2023/05/02 06:37:24;;;;;;;;;;;8.40;99.90;;;;;;5014006;28;19929;-66
2023/05/02 06:39:49;;;;;;;;;;;8.40;99.90;;;;;;5016676;28;20256;-66
2023/05/02 06:42:15;;;;;;;;;;;8.50;99.90;;;;;;5029516;28;19925;-66
2023/05/02 06:44:40;;;;;;;;;;;8.50;99.90;;;;;;5012851;28;19998;-68
2023/05/02 06:47:06;;;;;;;;;;;8.60;99.90;;;;;;5014630;28;19921;-66
2023/05/02 06:49:32;;;;;;;;;;;8.60;99.90;;;;;;5019076;28;19928;-66
2023/05/02 06:51:58;;;;;;;;;;;8.70;99.90;;;;;;5028559;28;19928;-67
2023/05/02 06:54:23;;;;;;;;;;;8.70;99.90;;;;;;5024247;28;19921;-67
2023/05/02 06:56:49;;;;;;;;;;;8.80;99.90;;;;;;5022840;28;19991;-66
2023/05/02 06:59:17;;;;;;;;;;;8.80;99.90;;;;;;5013302;28;20048;-67
2023/05/02 07:01:43;;;;;;;;;;;8.90;99.90;;;;;;5009782;28;20025;-66
2023/05/02 07:04:08;;;;;;;;;;;8.90;99.90;;;;;;5027514;28;20358;-68
2023/05/02 07:06:34;;;;;;;;;;;8.90;99.90;;;;;;5018570;28;20412;-68
2023/05/02 07:09:00;;;;;;;;;;;8.90;99.90;;;;;;5015494;28;19928;-66
2023/05/02 07:11:26;;;;;;;;;;;8.90;99.90;;;;;;5022013;28;19928;-66
2023/05/02 07:13:52;;;;;;;;;;;9.00;99.90;;;;;;5021478;28;20063;-66
2023/05/02 07:16:17;;;;;;;;;;;9.00;99.90;;;;;;5032169;28;19968;-66
2023/05/02 07:18:46;;;;;;;;;;;9.10;99.90;;;;;;5032944;28;20018;-67
2023/05/02 07:21:11;;;;;;;;;;;9.10;99.90;;;;;;5029303;28;19936;-68
2023/05/02 07:23:37;;;;;;;;;;;9.10;99.90;;;;;;5008964;28;19921;-66
2023/05/02 07:26:04;;;;;;;;;;;9.10;99.90;;;;;;5022362;28;19972;-64
2023/05/02 07:28:29;;;;;;;;;;;9.10;99.90;;;;;;5017944;28;19924;-66
2023/05/02 07:30:55;;;;;;;;;;;9.00;99.90;;;;;;5022421;28;19973;-65
2023/05/02 07:33:21;;;;;;;;;;;9.00;99.90;;;;;;5012300;28;19921;-65
2023/05/02 07:35:46;;;;;;;;;;;9.00;99.90;;;;;;5031396;28;19931;-66
2023/05/02 07:38:12;;;;;;;;;;;8.90;99.90;;;;;;5026239;28;20012;-67
2023/05/02 07:40:37;;;;;;;;;;;9.00;99.90;;;;;;5022477;28;19948;-65
2023/05/02 07:43:03;;;;;;;;;;;9.00;99.90;;;;;;4990491;28;19921;-65
2023/05/02 07:45:28;;;;;;;;;;;8.90;99.90;;;;;;5028890;28;20460;-65
2023/05/02 07:47:54;;;;;;;;;;;9.00;99.90;;;;;;5021066;28;19921;-66
2023/05/02 07:50:19;;;;;;;;;;;9.00;99.90;;;;;;5025464;28;19925;-67
2023/05/02 07:52:45;;;;;;;;;;;9.00;99.90;;;;;;5026840;28;19992;-66
2023/05/02 07:55:11;;;;;;;;;;;9.10;99.90;;;;;;4997727;28;19944;-65
2023/05/02 07:57:37;;;;;;;;;;;9.20;99.90;;;;;;5027381;28;20635;-66
2023/05/02 08:00:03;;;;;;;;;;;9.40;99.90;;;;;;5031669;28;19921;-68
2023/05/02 08:02:28;;;;;;;;;;;9.40;99.90;;;;;;4995001;28;19937;-67
2023/05/02 08:04:54;;;;;;;;;;;9.50;99.90;;;;;;5022556;28;19926;-66
2023/05/02 08:07:20;;;;;;;;;;;9.40;99.90;;;;;;5028255;28;21135;-66
2023/05/02 08:09:46;;;;;;;;;;;9.30;99.90;;;;;;5032010;28;19921;-67
2023/05/02 08:12:11;;;;;;;;;;;9.20;99.90;;;;;;5026063;28;20095;-65
2023/05/02 08:14:36;;;;;;;;;;;9.20;99.90;;;;;;5034463;28;20000;-66
2023/05/02 08:17:02;;;;;;;;;;;9.10;99.90;;;;;;5022926;28;19926;-66
2023/05/02 08:19:27;;;;;;;;;;;9.20;99.90;;;;;;5021802;28;19987;-65
2023/05/02 08:21:53;;;;;;;;;;;9.30;99.90;;;;;;5016890;28;19933;-66
2023/05/02 08:24:19;;;;;;;;;;;9.30;99.90;;;;;;5025938;28;19932;-66
2023/05/02 08:26:44;;;;;;;;;;;9.30;99.90;;;;;;5033664;28;19921;-65
2023/05/02 08:29:10;;;;;;;;;;;9.30;99.90;;;;;;5009884;28;19936;-74
2023/05/02 08:31:36;;;;;;;;;;;9.20;99.70;;;;;;5024328;28;19927;-66
2023/05/02 08:34:01;;;;;;;;;;;9.20;99.90;;;;;;5027262;28;19926;-66
2023/05/02 08:36:27;;;;;;;;;;;9.30;99.90;;;;;;5026946;28;19948;-68
2023/05/02 08:38:53;;;;;;;;;;;9.30;99.90;;;;;;5008248;28;19925;-67
2023/05/02 08:41:18;;;;;;;;;;;9.30;99.90;;;;;;5033212;28;19929;-67
2023/05/02 08:43:45;;;;;;;;;;;9.30;99.90;;;;;;5025487;28;20008;-67
2023/05/02 08:46:11;;;;;;;;;;;9.40;99.90;;;;;;5027155;28;19925;-67
2023/05/02 08:48:39;;;;;;;;;;;9.60;99.90;;;;;;5023306;28;19921;-67
2023/05/02 08:51:07;;;;;;;;;;;9.70;99.90;;;;;;5021841;28;19922;-67
2023/05/02 08:53:33;;;;;;;;;;;9.80;99.00;;;;;;5026311;28;19928;-64
2023/05/02 08:55:59;;;;;;;;;;;9.80;97.90;;;;;;5020945;28;19925;-66
2023/05/02 08:58:25;;;;;;;;;;;9.80;98.70;;;;;;5021006;28;19921;-65
2023/05/02 09:00:51;;;;;;;;;;;9.90;98.90;;;;;;5015993;28;20330;-65
2023/05/02 09:03:32;;;;;;;;;;;9.90;97.90;;;;;;5031242;28;19925;-65
2023/05/02 09:06:07;;;;;;;;;;;10.00;98.50;;;;;;5019004;28;20300;-65
2023/05/02 09:08:34;;;;;;;;;;;10.00;97.70;;;;;;5023210;28;19968;-65
2023/05/02 09:11:00;;;;;;;;;;;10.10;97.90;;;;;;5018941;28;19971;-67
2023/05/02 09:13:33;;;;;;;;;;;10.10;96.30;;;;;;5003254;28;19925;-67
2023/05/02 09:16:01;;;;;;;;;;;10.30;96.70;;;;;;5031306;28;19924;-67
2023/05/02 09:18:37;;;;;;;;;;;10.50;97.30;;;;;;5018638;28;19928;-67
2023/05/02 09:21:08;;;;;;;;;;;10.70;98.20;;;;;;5023706;28;19968;-68
2023/05/02 09:23:41;;;;;;;;;;;10.60;96.30;;;;;;5027800;28;19947;-65
2023/05/02 09:26:17;;;;;;;;;;;10.60;96.00;;;;;;5027018;28;20288;-66
2023/05/02 09:28:47;;;;;;;;;;;10.50;96.00;;;;;;5010222;28;19956;-66
2023/05/02 09:31:14;;;;;;;;;;;10.70;96.50;;;;;;5007173;28;20291;-65
2023/05/02 09:33:40;;;;;;;;;;;10.50;95.60;;;;;;5015929;28;19932;-67
2023/05/02 09:36:06;;;;;;;;;;;10.50;94.80;;;;;;5021074;28;19921;-65
2023/05/02 09:38:32;;;;;;;;;;;10.60;96.10;;;;;;5019705;28;19921;-66
2023/05/02 09:40:57;;;;;;;;;;;10.50;94.80;;;;;;5012055;28;19926;-66
2023/05/02 09:43:23;;;;;;;;;;;10.60;97.00;;;;;;5014730;28;19921;-68
2023/05/02 09:45:55;;;;;;;;;;;10.70;95.20;;;;;;5027186;28;19972;-68
2023/05/02 09:48:20;;;;;;;;;;;10.70;96.40;;;;;;5025118;28;19921;-66
2023/05/02 09:50:46;;;;;;;;;;;10.60;95.00;;;;;;5032639;28;19927;-65
2023/05/02 09:53:12;;;;;;;;;;;10.70;96.70;;;;;;5022749;28;20559;-66
2023/05/02 09:55:38;;;;;;;;;;;10.70;95.30;;;;;;5023944;28;19925;-67
2023/05/02 09:58:04;;;;;;;;;;;10.70;95.30;;;;;;5024011;28;19952;-65
2023/05/02 10:00:43;;;;;;;;;;;10.60;96.40;;;;;;5003163;28;19932;-67
2023/05/02 10:03:09;;;;;;;;;;;10.60;95.60;;;;;;5000944;28;20507;-67
2023/05/02 10:05:38;;;;;;;;;;;10.60;95.50;;;;;;5023557;28;19980;-67
2023/05/02 10:08:05;;;;;;;;;;;10.80;96.00;;;;;;5023829;28;19975;-66
2023/05/02 10:10:31;;;;;;;;;;;10.70;95.80;;;;;;5003656;28;19928;-67
2023/05/02 10:12:57;;;;;;;;;;;10.70;95.20;;;;;;5005052;28;19922;-68
2023/05/02 10:15:24;;;;;;;;;;;10.80;96.00;;;;;;5023962;28;19936;-68
2023/05/02 10:17:50;;;;;;;;;;;10.90;96.10;;;;;;5019259;28;20281;-68
2023/05/02 10:20:21;;;;;;;;;;;10.90;95.00;;;;;;5022790;28;19922;-67
2023/05/02 10:22:48;;;;;;;;;;;11.00;95.20;;;;;;5020231;28;19925;-66
2023/05/02 10:25:13;;;;;;;;;;;11.30;96.30;;;;;;4986248;28;19921;-66
2023/05/02 10:27:39;;;;;;;;;;;11.50;95.30;;;;;;5022238;28;20376;-66
2023/05/02 10:30:06;;;;;;;;;;;11.70;94.30;;;;;;5018771;28;19967;-67
2023/05/02 10:32:32;;;;;;;;;;;11.60;92.90;;;;;;5020439;28;19932;-66
2023/05/02 10:35:01;;;;;;;;;;;11.70;93.60;;;;;;5005049;28;19929;-66
2023/05/02 10:37:28;;;;;;;;;;;11.60;93.50;;;;;;5011397;28;19933;-66
2023/05/02 10:39:53;;;;;;;;;;;11.60;92.90;;;;;;5024587;28;20016;-71
2023/05/02 10:42:19;;;;;;;;;;;11.70;94.30;;;;;;5025322;28;20008;-66
2023/05/02 10:44:45;;;;;;;;;;;11.60;93.30;;;;;;5025583;28;19925;-67
2023/05/02 10:47:21;;;;;;;;;;;11.60;92.70;;;;;;5024563;28;19960;-66
2023/05/02 10:49:51;;;;;;;;;;;11.70;94.20;;;;;;5023665;28;19921;-66
2023/05/02 10:52:30;;;;;;;;;;;11.70;92.80;;;;;;5019741;28;19927;-66
2023/05/02 10:55:14;;;;;;;;;;;11.70;92.40;;;;;;5027214;28;19967;-67
2023/05/02 10:57:58;;;;;;;;;;;11.90;94.30;;;;;;5031873;28;20043;-67
2023/05/02 11:00:25;;;;;;;;;;;12.00;93.20;;;;;;5029069;28;19927;-67
2023/05/02 11:02:51;;;;;;;;;;;12.20;92.10;;;;;;5027303;28;19925;-67
2023/05/02 11:05:16;;;;;;;;;;;12.40;92.00;;;;;;5023147;28;20398;-66
2023/05/02 11:07:42;;;;;;;;;;;12.50;91.40;;;;;;5013430;28;19953;-66
2023/05/02 11:10:16;;;;;;;;;;;12.50;92.60;;;;;;4997322;28;20515;-66
2023/05/02 11:12:42;;;;;;;;;;;12.60;91.70;;;;;;5018343;28;19922;-67
2023/05/02 11:15:07;;;;;;;;;;;12.80;92.50;;;;;;5024304;28;19927;-67
2023/05/02 11:17:53;;;;;;;;;;;12.60;90.50;;;;;;5029013;28;19921;-66
2023/05/02 11:20:19;;;;;;;;;;;12.80;92.10;;;;;;5025091;28;19921;-67
2023/05/02 11:22:45;;;;;;;;;;;12.80;92.60;;;;;;5027701;28;20003;-67
2023/05/02 11:25:27;;;;;;;;;;;12.60;91.00;;;;;;5022291;28;19996;-66
2023/05/02 11:27:53;;;;;;;;;;;12.40;91.40;;;;;;5024215;28;19928;-67
2023/05/02 11:30:35;;;;;;;;;;;12.50;91.90;;;;;;5033542;28;19925;-66
2023/05/02 11:33:18;;;;;;;;;;;12.40;91.00;;;;;;5021324;28;19953;-66
2023/05/02 11:35:45;;;;;;;;;;;12.60;92.80;;;;;;5025167;28;19925;-66
2023/05/02 11:38:12;;;;;;;;;;;12.80;93.40;;;;;;5002183;28;19926;-66
2023/05/02 11:40:37;;;;;;;;;;;12.60;91.60;;;;;;5014661;28;19925;-66
2023/05/02 11:43:16;;;;;;;;;;;12.60;91.70;;;;;;5023838;28;19928;-67
2023/05/02 11:45:42;;;;;;;;;;;12.70;92.40;;;;;;5020159;28;19979;-66
2023/05/02 11:48:09;;;;;;;;;;;12.60;91.60;;;;;;5006836;28;19925;-66
2023/05/02 11:50:44;;;;;;;;;;;12.50;91.80;;;;;;5028690;28;19921;-66
2023/05/02 11:53:13;;;;;;;;;;;12.50;90.70;;;;;;5027983;28;20380;-67
2023/05/02 11:55:49;;;;;;;;;;;12.60;90.30;;;;;;5027158;28;19932;-65
2023/05/02 11:58:16;;;;;;;;;;;12.80;91.20;;;;;;5025338;28;19932;-66
2023/05/02 12:00:45;;;;;;;;;;;12.90;91.10;;;;;;5025760;28;19932;-67
2023/05/02 12:03:37;;;;;;;;;;;12.80;92.30;;;;;;5034904;28;20016;-68
2023/05/02 12:06:10;;;;;;;;;;;12.50;91.20;;;;;;5010896;28;19922;-68
2023/05/02 12:08:36;;;;;;;;;;;12.60;91.90;;;;;;5033048;28;19925;-67
2023/05/02 12:11:01;;;;;;;;;;;12.60;90.70;;;;;;5026263;28;19928;-68
2023/05/02 12:13:28;;;;;;;;;;;12.60;90.90;;;;;;5030298;28;19929;-67
2023/05/02 12:15:53;;;;;;;;;;;12.70;92.30;;;;;;5033355;28;19927;-67
2023/05/02 12:18:22;;;;;;;;;;;12.70;90.70;;;;;;5026186;28;19925;-68
2023/05/02 12:20:48;;;;;;;;;;;12.60;90.80;;;;;;5024016;28;19948;-65
2023/05/02 12:23:14;;;;;;;;;;;12.60;89.80;;;;;;5018824;28;19931;-65
2023/05/02 12:25:40;;;;;;;;;;;12.60;88.30;;;;;;5025876;28;20020;-66
2023/05/02 12:28:06;;;;;;;;;;;12.70;90.70;;;;;;5034204;28;19927;-66
2023/05/02 12:30:32;;;;;;;;;;;12.60;88.20;;;;;;5006295;28;19921;-65
2023/05/02 12:32:58;;;;;;;;;;;12.60;90.80;;;;;;5021247;28;19928;-66
2023/05/02 12:35:23;;;;;;;;;;;12.60;91.00;;;;;;5018928;28;20292;-67
2023/05/02 12:37:49;;;;;;;;;;;12.60;90.30;;;;;;5026217;28;20391;-66
2023/05/02 12:40:15;;;;;;;;;;;12.60;90.70;;;;;;5029628;28;19921;-68
2023/05/02 12:42:41;;;;;;;;;;;12.50;92.00;;;;;;5027225;28;19931;-66
2023/05/02 12:45:16;;;;;;;;;;;12.50;93.00;;;;;;5023943;28;19920;-68
2023/05/02 12:47:45;;;;;;;;;;;12.50;92.30;;;;;;5027533;28;19921;-68
2023/05/02 12:50:10;;;;;;;;;;;12.40;91.30;;;;;;4992106;28;20383;-68
2023/05/02 12:52:45;;;;;;;;;;;12.20;92.60;;;;;;5026678;28;19921;-67
2023/05/02 12:55:14;;;;;;;;;;;12.10;92.80;;;;;;5025678;28;19927;-68
2023/05/02 12:57:40;;;;;;;;;;;12.00;94.10;;;;;;5013101;28;19964;-67
2023/05/02 13:00:06;;;;;;;;;;;12.00;93.50;;;;;;5026913;28;19964;-68
2023/05/02 13:02:31;;;;;;;;;;;12.00;92.80;;;;;;5021002;28;20032;-65
2023/05/02 13:04:57;;;;;;;;;;;11.90;92.70;;;;;;5023900;28;19925;-68
2023/05/02 13:07:22;;;;;;;;;;;12.00;95.10;;;;;;5016433;28;20410;-68
2023/05/02 13:09:48;;;;;;;;;;;12.10;94.00;;;;;;5010933;28;19921;-67
2023/05/02 13:12:13;;;;;;;;;;;12.10;94.70;;;;;;5022143;28;19967;-69
2023/05/02 13:14:39;;;;;;;;;;;12.10;94.90;;;;;;5028785;28;19925;-69
2023/05/02 13:17:04;;;;;;;;;;;12.10;94.70;;;;;;5004305;28;20304;-68
2023/05/02 13:19:30;;;;;;;;;;;12.10;94.10;;;;;;4999402;28;19925;-69
2023/05/02 13:21:55;;;;;;;;;;;12.20;95.50;;;;;;5016996;28;20008;-69
2023/05/02 13:24:21;;;;;;;;;;;12.20;95.00;;;;;;5024980;28;19928;-69
2023/05/02 13:26:46;;;;;;;;;;;12.30;94.80;;;;;;5006905;28;19929;-68
2023/05/02 13:29:12;;;;;;;;;;;12.30;94.50;;;;;;5003903;28;19921;-69
2023/05/02 13:31:37;;;;;;;;;;;12.30;95.10;;;;;;5023570;28;20404;-69
2023/05/02 13:34:03;;;;;;;;;;;12.20;95.10;;;;;;5023191;28;19932;-68
2023/05/02 13:36:29;;;;;;;;;;;12.10;95.40;;;;;;4996550;28;20008;-68
2023/05/02 13:38:54;;;;;;;;;;;12.00;95.60;;;;;;5026036;28;19921;-69
2023/05/02 13:41:20;;;;;;;;;;;12.00;95.80;;;;;;5023395;28;20075;-68
2023/05/02 13:43:46;;;;;;;;;;;12.00;96.30;;;;;;5031207;28;19928;-68
2023/05/02 13:46:11;;;;;;;;;;;11.90;95.40;;;;;;5006668;28;20306;-68
2023/05/02 13:48:36;;;;;;;;;;;12.00;95.00;;;;;;5022879;28;20053;-68
2023/05/02 13:51:02;;;;;;;;;;;12.10;96.20;;;;;;5016227;28;19921;-69
2023/05/02 13:53:28;;;;;;;;;;;12.20;97.00;;;;;;5017039;28;19929;-68
2023/05/02 13:55:53;;;;;;;;;;;12.10;95.50;;;;;;5024991;28;19927;-67
2023/05/02 13:58:19;;;;;;;;;;;12.00;96.30;;;;;;5011329;28;20109;-69
2023/05/02 14:00:45;;;;;;;;;;;12.10;95.70;;;;;;4996338;28;20020;-69
2023/05/02 14:03:12;;;;;;;;;;;12.10;97.50;;;;;;5029814;28;21440;-68
2023/05/02 14:05:42;;;;;;;;;;;12.10;96.10;;;;;;5017498;28;19921;-68
2023/05/02 14:08:10;;;;;;;;;;;12.20;95.80;;;;;;5018641;28;20020;-67
2023/05/02 14:10:36;;;;;;;;;;;12.10;95.40;;;;;;5017468;28;19921;-68
2023/05/02 14:13:02;;;;;;;;;;;12.00;97.10;;;;;;5014841;28;19928;-68
2023/05/02 14:15:28;;;;;;;;;;;11.80;96.70;;;;;;5016468;28;19928;-68
2023/05/02 14:17:53;;;;;;;;;;;11.80;97.00;;;;;;5018725;28;20028;-67
2023/05/02 14:20:19;;;;;;;;;;;11.80;97.20;;;;;;5028214;28;19929;-67
2023/05/02 14:22:44;;;;;;;;;;;11.90;96.10;;;;;;5031638;28;19925;-67